sensor_id;sensor_type;location;lat;lon;timestamp;P1;durP1;ratioP1;P2;durP2;ratioP2
58015;SDS011;43809;52.110;20.964;2022-07-23T00:01:05;6.10;;;5.30;;
58015;SDS011;43809;52.110;20.964;2022-07-23T00:03:05;6.70;;;6.07;;
58015;SDS011;43809;52.110;20.964;2022-07-23T00:05:05;5.95;;;5.35;;
58015;SDS011;43809;52.110;20.964;2022-07-23T00:07:06;5.25;;;4.75;;
58015;SDS011;43809;52.110;20.964;2022-07-23T00:09:06;5.13;;;4.63;;
58015;SDS011;43809;52.110;20.964;2022-07-23T00:11:06;6.43;;;4.93;;
58015;SDS011;43809;52.110;20.964;2022-07-23T00:13:06;5.83;;;5.33;;
58015;SDS011;43809;52.110;20.964;2022-07-23T00:15:07;5.53;;;5.03;;
58015;SDS011;43809;52.110;20.964;2022-07-23T00:17:07;5.07;;;4.57;;
58015;SDS011;43809;52.110;20.964;2022-07-23T00:19:07;5.43;;;4.70;;
58015;SDS011;43809;52.110;20.964;2022-07-23T00:21:07;5.60;;;5.00;;
58015;SDS011;43809;52.110;20.964;2022-07-23T00:23:08;11.60;;;7.10;;
58015;SDS011;43809;52.110;20.964;2022-07-23T00:25:08;10.93;;;8.63;;
58015;SDS011;43809;52.110;20.964;2022-07-23T00:27:08;9.65;;;7.72;;
58015;SDS011;43809;52.110;20.964;2022-07-23T00:29:08;7.43;;;6.70;;
58015;SDS011;43809;52.110;20.964;2022-07-23T00:31:08;9.87;;;7.07;;
58015;SDS011;43809;52.110;20.964;2022-07-23T00:33:09;10.18;;;8.52;;
58015;SDS011;43809;52.110;20.964;2022-07-23T00:35:09;7.93;;;7.13;;
58015;SDS011;43809;52.110;20.964;2022-07-23T00:37:09;7.50;;;6.80;;
58015;SDS011;43809;52.110;20.964;2022-07-23T00:39:09;6.60;;;5.90;;
58015;SDS011;43809;52.110;20.964;2022-07-23T00:41:09;8.63;;;6.57;;
58015;SDS011;43809;52.110;20.964;2022-07-23T00:43:10;9.20;;;8.17;;
58015;SDS011;43809;52.110;20.964;2022-07-23T00:45:10;8.70;;;7.85;;
58015;SDS011;43809;52.110;20.964;2022-07-23T00:47:10;8.30;;;7.40;;
58015;SDS011;43809;52.110;20.964;2022-07-23T00:49:10;8.17;;;7.37;;
58015;SDS011;43809;52.110;20.964;2022-07-23T00:51:10;6.90;;;6.20;;
58015;SDS011;43809;52.110;20.964;2022-07-23T00:53:11;6.00;;;5.40;;
58015;SDS011;43809;52.110;20.964;2022-07-23T00:55:11;6.50;;;5.90;;
58015;SDS011;43809;52.110;20.964;2022-07-23T00:57:11;5.78;;;5.20;;
58015;SDS011;43809;52.110;20.964;2022-07-23T00:59:12;5.78;;;5.28;;
58015;SDS011;43809;52.110;20.964;2022-07-23T01:01:12;5.70;;;5.20;;
58015;SDS011;43809;52.110;20.964;2022-07-23T01:03:12;4.10;;;3.70;;
58015;SDS011;43809;52.110;20.964;2022-07-23T01:05:12;5.00;;;4.50;;
58015;SDS011;43809;52.110;20.964;2022-07-23T01:07:13;6.07;;;5.07;;
58015;SDS011;43809;52.110;20.964;2022-07-23T01:09:13;4.97;;;4.47;;
58015;SDS011;43809;52.110;20.964;2022-07-23T01:11:13;7.55;;;5.97;;
58015;SDS011;43809;52.110;20.964;2022-07-23T01:13:13;4.90;;;4.47;;
58015;SDS011;43809;52.110;20.964;2022-07-23T01:15:14;5.38;;;4.88;;
58015;SDS011;43809;52.110;20.964;2022-07-23T01:17:14;4.60;;;4.10;;
58015;SDS011;43809;52.110;20.964;2022-07-23T01:19:14;5.83;;;4.60;;
58015;SDS011;43809;52.110;20.964;2022-07-23T01:21:15;5.60;;;5.10;;
58015;SDS011;43809;52.110;20.964;2022-07-23T01:25:17;4.80;;;4.40;;
58015;SDS011;43809;52.110;20.964;2022-07-23T01:27:17;6.13;;;5.53;;
58015;SDS011;43809;52.110;20.964;2022-07-23T01:29:19;5.63;;;5.10;;
58015;SDS011;43809;52.110;20.964;2022-07-23T01:31:21;11.03;;;9.80;;
58015;SDS011;43809;52.110;20.964;2022-07-23T01:33:21;8.90;;;7.78;;
58015;SDS011;43809;52.110;20.964;2022-07-23T01:35:21;12.07;;;10.77;;
58015;SDS011;43809;52.110;20.964;2022-07-23T01:37:21;10.23;;;8.70;;
58015;SDS011;43809;52.110;20.964;2022-07-23T01:39:21;12.37;;;10.37;;
58015;SDS011;43809;52.110;20.964;2022-07-23T01:41:21;10.23;;;9.23;;
58015;SDS011;43809;52.110;20.964;2022-07-23T01:43:22;7.93;;;7.15;;
58015;SDS011;43809;52.110;20.964;2022-07-23T01:45:22;6.57;;;5.97;;
58015;SDS011;43809;52.110;20.964;2022-07-23T01:47:22;6.53;;;5.90;;
58015;SDS011;43809;52.110;20.964;2022-07-23T01:49:22;5.90;;;5.27;;
58015;SDS011;43809;52.110;20.964;2022-07-23T01:51:22;6.00;;;5.43;;
58015;SDS011;43809;52.110;20.964;2022-07-23T01:53:23;5.33;;;4.80;;
58015;SDS011;43809;52.110;20.964;2022-07-23T01:55:23;6.37;;;5.00;;
58015;SDS011;43809;52.110;20.964;2022-07-23T01:57:23;5.20;;;4.70;;
58015;SDS011;43809;52.110;20.964;2022-07-23T01:59:23;7.53;;;5.97;;
58015;SDS011;43809;52.110;20.964;2022-07-23T02:01:24;5.88;;;5.30;;
58015;SDS011;43809;52.110;20.964;2022-07-23T02:03:24;5.60;;;5.10;;
58015;SDS011;43809;52.110;20.964;2022-07-23T02:05:24;4.57;;;4.18;;
58015;SDS011;43809;52.110;20.964;2022-07-23T02:07:25;4.70;;;4.25;;
58015;SDS011;43809;52.110;20.964;2022-07-23T02:09:25;4.43;;;3.80;;
58015;SDS011;43809;52.110;20.964;2022-07-23T02:11:25;5.07;;;4.27;;
58015;SDS011;43809;52.110;20.964;2022-07-23T02:13:25;4.37;;;3.67;;
58015;SDS011;43809;52.110;20.964;2022-07-23T02:15:25;7.47;;;5.97;;
58015;SDS011;43809;52.110;20.964;2022-07-23T02:17:25;6.47;;;5.72;;
58015;SDS011;43809;52.110;20.964;2022-07-23T02:19:26;5.20;;;4.60;;
58015;SDS011;43809;52.110;20.964;2022-07-23T02:21:26;6.23;;;5.60;;
58015;SDS011;43809;52.110;20.964;2022-07-23T02:23:26;6.57;;;5.40;;
58015;SDS011;43809;52.110;20.964;2022-07-23T02:25:26;6.00;;;5.50;;
58015;SDS011;43809;52.110;20.964;2022-07-23T02:27:26;4.60;;;4.10;;
58015;SDS011;43809;52.110;20.964;2022-07-23T02:29:28;4.88;;;4.43;;
58015;SDS011;43809;52.110;20.964;2022-07-23T02:31:28;4.63;;;4.23;;
58015;SDS011;43809;52.110;20.964;2022-07-23T02:33:29;4.65;;;4.25;;
58015;SDS011;43809;52.110;20.964;2022-07-23T02:35:29;4.85;;;4.38;;
58015;SDS011;43809;52.110;20.964;2022-07-23T02:37:29;4.60;;;4.03;;
58015;SDS011;43809;52.110;20.964;2022-07-23T02:39:29;4.95;;;4.47;;
58015;SDS011;43809;52.110;20.964;2022-07-23T02:41:29;4.50;;;4.10;;
58015;SDS011;43809;52.110;20.964;2022-07-23T02:43:30;5.00;;;3.80;;
58015;SDS011;43809;52.110;20.964;2022-07-23T02:45:30;7.00;;;5.63;;
58015;SDS011;43809;52.110;20.964;2022-07-23T02:47:30;6.10;;;5.17;;
58015;SDS011;43809;52.110;20.964;2022-07-23T02:49:31;6.90;;;6.20;;
58015;SDS011;43809;52.110;20.964;2022-07-23T02:51:32;5.93;;;5.33;;
58015;SDS011;43809;52.110;20.964;2022-07-23T02:53:32;6.70;;;6.00;;
58015;SDS011;43809;52.110;20.964;2022-07-23T02:55:32;8.00;;;6.57;;
58015;SDS011;43809;52.110;20.964;2022-07-23T02:57:32;5.80;;;5.30;;
58015;SDS011;43809;52.110;20.964;2022-07-23T02:59:32;7.53;;;6.77;;
58015;SDS011;43809;52.110;20.964;2022-07-23T03:01:32;5.63;;;5.00;;
58015;SDS011;43809;52.110;20.964;2022-07-23T03:03:33;5.67;;;5.07;;
58015;SDS011;43809;52.110;20.964;2022-07-23T03:05:33;5.20;;;4.70;;
58015;SDS011;43809;52.110;20.964;2022-07-23T03:07:33;5.53;;;4.93;;
58015;SDS011;43809;52.110;20.964;2022-07-23T03:09:34;5.15;;;4.72;;
58015;SDS011;43809;52.110;20.964;2022-07-23T03:11:34;5.18;;;4.68;;
58015;SDS011;43809;52.110;20.964;2022-07-23T03:13:34;5.13;;;4.63;;
58015;SDS011;43809;52.110;20.964;2022-07-23T03:15:35;7.63;;;6.33;;
58015;SDS011;43809;52.110;20.964;2022-07-23T03:17:35;7.80;;;7.00;;
58015;SDS011;43809;52.110;20.964;2022-07-23T03:19:35;5.53;;;4.97;;
58015;SDS011;43809;52.110;20.964;2022-07-23T03:21:36;6.35;;;5.13;;
58015;SDS011;43809;52.110;20.964;2022-07-23T03:23:40;7.95;;;7.15;;
58015;SDS011;43809;52.110;20.964;2022-07-23T03:25:40;8.18;;;7.05;;
58015;SDS011;43809;52.110;20.964;2022-07-23T03:27:40;7.13;;;5.83;;
58015;SDS011;43809;52.110;20.964;2022-07-23T03:29:40;6.33;;;5.40;;
58015;SDS011;43809;52.110;20.964;2022-07-23T03:31:40;6.43;;;5.50;;
58015;SDS011;43809;52.110;20.964;2022-07-23T03:33:41;5.47;;;4.97;;
58015;SDS011;43809;52.110;20.964;2022-07-23T03:35:41;6.67;;;6.03;;
58015;SDS011;43809;52.110;20.964;2022-07-23T03:37:41;4.97;;;4.57;;
58015;SDS011;43809;52.110;20.964;2022-07-23T03:39:41;6.18;;;5.53;;
58015;SDS011;43809;52.110;20.964;2022-07-23T03:41:41;6.35;;;5.45;;
58015;SDS011;43809;52.110;20.964;2022-07-23T03:43:42;6.50;;;5.77;;
58015;SDS011;43809;52.110;20.964;2022-07-23T03:45:42;5.23;;;4.73;;
58015;SDS011;43809;52.110;20.964;2022-07-23T03:47:42;6.85;;;6.22;;
58015;SDS011;43809;52.110;20.964;2022-07-23T03:49:44;5.60;;;5.10;;
58015;SDS011;43809;52.110;20.964;2022-07-23T03:51:44;5.80;;;5.20;;
58015;SDS011;43809;52.110;20.964;2022-07-23T03:53:44;6.80;;;6.10;;
58015;SDS011;43809;52.110;20.964;2022-07-23T03:55:44;6.90;;;6.20;;
58015;SDS011;43809;52.110;20.964;2022-07-23T03:57:44;6.27;;;5.67;;
58015;SDS011;43809;52.110;20.964;2022-07-23T03:59:45;7.10;;;6.40;;
58015;SDS011;43809;52.110;20.964;2022-07-23T04:01:46;8.00;;;7.20;;
58015;SDS011;43809;52.110;20.964;2022-07-23T04:03:46;9.38;;;8.48;;
58015;SDS011;43809;52.110;20.964;2022-07-23T04:05:46;9.67;;;7.37;;
58015;SDS011;43809;52.110;20.964;2022-07-23T04:07:46;8.10;;;6.80;;
58015;SDS011;43809;52.110;20.964;2022-07-23T04:09:46;11.87;;;8.90;;
58015;SDS011;43809;52.110;20.964;2022-07-23T04:11:47;14.00;;;9.87;;
58015;SDS011;43809;52.110;20.964;2022-07-23T04:13:47;14.68;;;12.23;;
58015;SDS011;43809;52.110;20.964;2022-07-23T04:15:47;12.07;;;10.73;;
58015;SDS011;43809;52.110;20.964;2022-07-23T04:17:47;10.35;;;9.25;;
58015;SDS011;43809;52.110;20.964;2022-07-23T04:19:47;11.53;;;9.87;;
58015;SDS011;43809;52.110;20.964;2022-07-23T04:21:47;11.07;;;9.23;;
58015;SDS011;43809;52.110;20.964;2022-07-23T04:23:48;12.50;;;10.13;;
58015;SDS011;43809;52.110;20.964;2022-07-23T04:25:48;11.17;;;9.97;;
58015;SDS011;43809;52.110;20.964;2022-07-23T04:27:48;11.88;;;10.68;;
58015;SDS011;43809;52.110;20.964;2022-07-23T04:29:48;13.20;;;9.73;;
58015;SDS011;43809;52.110;20.964;2022-07-23T04:31:48;11.27;;;10.07;;
58015;SDS011;43809;52.110;20.964;2022-07-23T04:33:49;9.50;;;8.15;;
58015;SDS011;43809;52.110;20.964;2022-07-23T04:35:49;12.70;;;9.87;;
58015;SDS011;43809;52.110;20.964;2022-07-23T04:37:49;12.97;;;11.53;;
58015;SDS011;43809;52.110;20.964;2022-07-23T04:39:49;15.07;;;12.17;;
58015;SDS011;43809;52.110;20.964;2022-07-23T04:41:49;13.43;;;11.90;;
58015;SDS011;43809;52.110;20.964;2022-07-23T04:43:49;12.63;;;10.88;;
58015;SDS011;43809;52.110;20.964;2022-07-23T04:45:50;12.53;;;10.67;;
58015;SDS011;43809;52.110;20.964;2022-07-23T04:47:50;11.57;;;9.50;;
58015;SDS011;43809;52.110;20.964;2022-07-23T04:49:50;12.50;;;10.90;;
58015;SDS011;43809;52.110;20.964;2022-07-23T04:51:50;12.50;;;10.03;;
58015;SDS011;43809;52.110;20.964;2022-07-23T04:53:50;12.70;;;11.40;;
58015;SDS011;43809;52.110;20.964;2022-07-23T04:55:51;13.25;;;10.98;;
58015;SDS011;43809;52.110;20.964;2022-07-23T04:57:51;15.40;;;10.80;;
58015;SDS011;43809;52.110;20.964;2022-07-23T04:59:51;13.17;;;10.53;;
58015;SDS011;43809;52.110;20.964;2022-07-23T05:01:51;13.10;;;11.67;;
58015;SDS011;43809;52.110;20.964;2022-07-23T05:03:51;11.57;;;10.13;;
58015;SDS011;43809;52.110;20.964;2022-07-23T05:05:52;10.90;;;9.80;;
58015;SDS011;43809;52.110;20.964;2022-07-23T05:07:52;13.13;;;10.77;;
58015;SDS011;43809;52.110;20.964;2022-07-23T05:09:52;14.43;;;10.25;;
58015;SDS011;43809;52.110;20.964;2022-07-23T05:11:52;11.33;;;9.97;;
58015;SDS011;43809;52.110;20.964;2022-07-23T05:13:53;14.20;;;10.93;;
58015;SDS011;43809;52.110;20.964;2022-07-23T05:15:53;15.37;;;12.00;;
58015;SDS011;43809;52.110;20.964;2022-07-23T05:17:53;11.93;;;10.63;;
58015;SDS011;43809;52.110;20.964;2022-07-23T05:19:53;12.38;;;10.90;;
58015;SDS011;43809;52.110;20.964;2022-07-23T05:21:53;11.77;;;9.40;;
58015;SDS011;43809;52.110;20.964;2022-07-23T05:23:53;13.60;;;10.63;;
58015;SDS011;43809;52.110;20.964;2022-07-23T05:25:54;11.43;;;9.47;;
58015;SDS011;43809;52.110;20.964;2022-07-23T05:27:54;9.77;;;8.77;;
58015;SDS011;43809;52.110;20.964;2022-07-23T05:29:54;9.87;;;8.80;;
58015;SDS011;43809;52.110;20.964;2022-07-23T05:31:54;9.50;;;7.93;;
58015;SDS011;43809;52.110;20.964;2022-07-23T05:33:54;9.25;;;7.50;;
58015;SDS011;43809;52.110;20.964;2022-07-23T05:35:59;17.73;;;8.93;;
58015;SDS011;43809;52.110;20.964;2022-07-23T05:37:59;12.57;;;8.55;;
58015;SDS011;43809;52.110;20.964;2022-07-23T05:40:00;10.17;;;9.00;;
58015;SDS011;43809;52.110;20.964;2022-07-23T05:42:01;8.68;;;7.88;;
58015;SDS011;43809;52.110;20.964;2022-07-23T05:44:01;9.23;;;8.43;;
58015;SDS011;43809;52.110;20.964;2022-07-23T05:46:01;8.90;;;7.87;;
58015;SDS011;43809;52.110;20.964;2022-07-23T05:48:01;9.00;;;8.10;;
58015;SDS011;43809;52.110;20.964;2022-07-23T05:50:03;8.38;;;7.50;;
58015;SDS011;43809;52.110;20.964;2022-07-23T05:52:04;8.18;;;7.38;;
58015;SDS011;43809;52.110;20.964;2022-07-23T05:54:04;8.90;;;8.00;;
58015;SDS011;43809;52.110;20.964;2022-07-23T05:56:05;7.87;;;7.17;;
58015;SDS011;43809;52.110;20.964;2022-07-23T05:58:05;8.17;;;7.37;;
58015;SDS011;43809;52.110;20.964;2022-07-23T06:00:05;10.23;;;7.33;;
58015;SDS011;43809;52.110;20.964;2022-07-23T06:02:06;7.63;;;6.93;;
58015;SDS011;43809;52.110;20.964;2022-07-23T06:04:06;8.03;;;7.23;;
58015;SDS011;43809;52.110;20.964;2022-07-23T06:06:06;7.00;;;6.30;;
58015;SDS011;43809;52.110;20.964;2022-07-23T06:08:07;6.63;;;6.03;;
58015;SDS011;43809;52.110;20.964;2022-07-23T06:10:07;6.23;;;5.73;;
58015;SDS011;43809;52.110;20.964;2022-07-23T06:12:08;5.60;;;5.10;;
58015;SDS011;43809;52.110;20.964;2022-07-23T06:14:08;6.10;;;5.60;;
58015;SDS011;43809;52.110;20.964;2022-07-23T06:16:09;6.00;;;5.33;;
58015;SDS011;43809;52.110;20.964;2022-07-23T06:18:09;7.13;;;6.43;;
58015;SDS011;43809;52.110;20.964;2022-07-23T06:20:09;6.40;;;5.80;;
58015;SDS011;43809;52.110;20.964;2022-07-23T06:22:09;5.60;;;5.10;;
58015;SDS011;43809;52.110;20.964;2022-07-23T06:24:10;7.27;;;5.73;;
58015;SDS011;43809;52.110;20.964;2022-07-23T06:26:10;6.30;;;5.80;;
58015;SDS011;43809;52.110;20.964;2022-07-23T06:28:10;6.00;;;5.47;;
58015;SDS011;43809;52.110;20.964;2022-07-23T06:30:10;6.63;;;5.90;;
58015;SDS011;43809;52.110;20.964;2022-07-23T06:32:11;5.97;;;5.38;;
58015;SDS011;43809;52.110;20.964;2022-07-23T06:34:11;7.10;;;6.40;;
58015;SDS011;43809;52.110;20.964;2022-07-23T06:36:11;6.40;;;5.90;;
58015;SDS011;43809;52.110;20.964;2022-07-23T06:38:11;5.83;;;5.33;;
58015;SDS011;43809;52.110;20.964;2022-07-23T06:40:12;6.35;;;5.75;;
58015;SDS011;43809;52.110;20.964;2022-07-23T06:42:13;6.57;;;6.03;;
58015;SDS011;43809;52.110;20.964;2022-07-23T06:44:13;5.50;;;5.03;;
58015;SDS011;43809;52.110;20.964;2022-07-23T06:46:13;5.50;;;5.00;;
58015;SDS011;43809;52.110;20.964;2022-07-23T06:48:13;10.67;;;5.67;;
58015;SDS011;43809;52.110;20.964;2022-07-23T06:50:13;5.63;;;5.13;;
58015;SDS011;43809;52.110;20.964;2022-07-23T06:52:14;5.83;;;5.27;;
58015;SDS011;43809;52.110;20.964;2022-07-23T06:54:14;5.97;;;5.47;;
58015;SDS011;43809;52.110;20.964;2022-07-23T06:56:14;5.60;;;5.10;;
58015;SDS011;43809;52.110;20.964;2022-07-23T06:58:14;8.80;;;6.60;;
58015;SDS011;43809;52.110;20.964;2022-07-23T07:00:14;6.17;;;5.67;;
58015;SDS011;43809;52.110;20.964;2022-07-23T07:02:14;6.97;;;6.37;;
58015;SDS011;43809;52.110;20.964;2022-07-23T07:04:15;6.90;;;6.30;;
58015;SDS011;43809;52.110;20.964;2022-07-23T07:06:15;8.50;;;5.93;;
58015;SDS011;43809;52.110;20.964;2022-07-23T07:08:15;5.63;;;4.93;;
58015;SDS011;43809;52.110;20.964;2022-07-23T07:10:15;6.27;;;5.67;;
58015;SDS011;43809;52.110;20.964;2022-07-23T07:12:17;6.25;;;5.65;;
58015;SDS011;43809;52.110;20.964;2022-07-23T07:14:17;6.40;;;5.80;;
58015;SDS011;43809;52.110;20.964;2022-07-23T07:16:17;6.03;;;5.53;;
58015;SDS011;43809;52.110;20.964;2022-07-23T07:18:17;5.73;;;5.30;;
58015;SDS011;43809;52.110;20.964;2022-07-23T07:20:18;6.10;;;5.53;;
58015;SDS011;43809;52.110;20.964;2022-07-23T07:22:18;6.47;;;5.83;;
58015;SDS011;43809;52.110;20.964;2022-07-23T07:24:18;6.40;;;5.80;;
58015;SDS011;43809;52.110;20.964;2022-07-23T07:26:18;5.77;;;5.23;;
58015;SDS011;43809;52.110;20.964;2022-07-23T07:28:18;5.97;;;5.40;;
58015;SDS011;43809;52.110;20.964;2022-07-23T07:30:19;6.37;;;5.87;;
58015;SDS011;43809;52.110;20.964;2022-07-23T07:32:19;6.13;;;5.63;;
58015;SDS011;43809;52.110;20.964;2022-07-23T07:34:19;6.20;;;5.70;;
58015;SDS011;43809;52.110;20.964;2022-07-23T07:36:19;6.53;;;5.87;;
58015;SDS011;43809;52.110;20.964;2022-07-23T07:38:19;5.47;;;5.07;;
58015;SDS011;43809;52.110;20.964;2022-07-23T07:40:20;9.07;;;6.80;;
58015;SDS011;43809;52.110;20.964;2022-07-23T07:42:20;7.40;;;5.73;;
58015;SDS011;43809;52.110;20.964;2022-07-23T07:44:20;7.20;;;5.50;;
58015;SDS011;43809;52.110;20.964;2022-07-23T07:46:20;5.60;;;5.10;;
58015;SDS011;43809;52.110;20.964;2022-07-23T07:48:20;6.37;;;5.77;;
58015;SDS011;43809;52.110;20.964;2022-07-23T07:50:21;6.83;;;6.23;;
58015;SDS011;43809;52.110;20.964;2022-07-23T07:52:21;6.57;;;6.00;;
58015;SDS011;43809;52.110;20.964;2022-07-23T07:54:21;5.40;;;4.97;;
58015;SDS011;43809;52.110;20.964;2022-07-23T07:56:22;6.60;;;5.90;;
58015;SDS011;43809;52.110;20.964;2022-07-23T07:58:22;7.07;;;6.37;;
58015;SDS011;43809;52.110;20.964;2022-07-23T08:00:22;13.13;;;6.53;;
58015;SDS011;43809;52.110;20.964;2022-07-23T08:02:22;10.40;;;6.23;;
58015;SDS011;43809;52.110;20.964;2022-07-23T08:04:22;6.57;;;5.87;;
58015;SDS011;43809;52.110;20.964;2022-07-23T08:06:23;5.73;;;5.23;;
58015;SDS011;43809;52.110;20.964;2022-07-23T08:08:23;7.07;;;6.37;;
58015;SDS011;43809;52.110;20.964;2022-07-23T08:10:23;6.93;;;6.23;;
58015;SDS011;43809;52.110;20.964;2022-07-23T08:12:24;7.25;;;6.50;;
58015;SDS011;43809;52.110;20.964;2022-07-23T08:14:25;6.30;;;5.80;;
58015;SDS011;43809;52.110;20.964;2022-07-23T08:16:25;6.30;;;5.80;;
58015;SDS011;43809;52.110;20.964;2022-07-23T08:18:25;6.40;;;5.90;;
58015;SDS011;43809;52.110;20.964;2022-07-23T08:20:25;7.47;;;6.77;;
58015;SDS011;43809;52.110;20.964;2022-07-23T08:22:27;6.83;;;6.13;;
58015;SDS011;43809;52.110;20.964;2022-07-23T08:24:40;6.60;;;5.90;;
58015;SDS011;43809;52.110;20.964;2022-07-23T08:26:40;6.70;;;6.03;;
58015;SDS011;43809;52.110;20.964;2022-07-23T08:28:41;7.10;;;6.50;;
58015;SDS011;43809;52.110;20.964;2022-07-23T08:30:42;6.80;;;6.17;;
58015;SDS011;43809;52.110;20.964;2022-07-23T08:34:48;6.75;;;6.07;;
58015;SDS011;43809;52.110;20.964;2022-07-23T08:36:49;15.13;;;7.73;;
58015;SDS011;43809;52.110;20.964;2022-07-23T08:38:49;8.23;;;7.23;;
58015;SDS011;43809;52.110;20.964;2022-07-23T08:40:50;7.37;;;6.40;;
58015;SDS011;43809;52.110;20.964;2022-07-23T08:42:50;8.70;;;7.80;;
58015;SDS011;43809;52.110;20.964;2022-07-23T08:44:51;11.90;;;6.97;;
58015;SDS011;43809;52.110;20.964;2022-07-23T08:46:51;8.83;;;6.90;;
58015;SDS011;43809;52.110;20.964;2022-07-23T08:48:52;7.03;;;6.37;;
58015;SDS011;43809;52.110;20.964;2022-07-23T08:50:53;6.93;;;6.33;;
58015;SDS011;43809;52.110;20.964;2022-07-23T08:52:54;6.63;;;6.03;;
58015;SDS011;43809;52.110;20.964;2022-07-23T08:54:56;6.78;;;6.18;;
58015;SDS011;43809;52.110;20.964;2022-07-23T08:56:57;7.47;;;6.80;;
58015;SDS011;43809;52.110;20.964;2022-07-23T08:58:57;6.93;;;6.30;;
58015;SDS011;43809;52.110;20.964;2022-07-23T09:00:57;6.73;;;6.10;;
58015;SDS011;43809;52.110;20.964;2022-07-23T09:02:58;7.60;;;6.90;;
58015;SDS011;43809;52.110;20.964;2022-07-23T09:04:58;7.60;;;6.90;;
58015;SDS011;43809;52.110;20.964;2022-07-23T09:06:58;6.63;;;6.13;;
58015;SDS011;43809;52.110;20.964;2022-07-23T09:08:58;6.47;;;5.87;;
58015;SDS011;43809;52.110;20.964;2022-07-23T09:11:16;7.97;;;7.18;;
58015;SDS011;43809;52.110;20.964;2022-07-23T09:13:35;8.03;;;7.20;;
58015;SDS011;43809;52.110;20.964;2022-07-23T09:15:41;7.43;;;6.72;;
58015;SDS011;43809;52.110;20.964;2022-07-23T09:17:47;8.40;;;7.22;;
58015;SDS011;43809;52.110;20.964;2022-07-23T09:19:48;7.07;;;6.47;;
58015;SDS011;43809;52.110;20.964;2022-07-23T09:21:49;6.73;;;6.13;;
58015;SDS011;43809;52.110;20.964;2022-07-23T09:25:49;7.87;;;7.17;;
58015;SDS011;43809;52.110;20.964;2022-07-23T09:27:53;6.80;;;6.20;;
58015;SDS011;43809;52.110;20.964;2022-07-23T09:29:57;7.13;;;6.40;;
58015;SDS011;43809;52.110;20.964;2022-07-23T09:31:58;6.53;;;5.93;;
58015;SDS011;43809;52.110;20.964;2022-07-23T09:34:08;19.63;;;8.30;;
58015;SDS011;43809;52.110;20.964;2022-07-23T09:36:09;6.57;;;5.97;;
58015;SDS011;43809;52.110;20.964;2022-07-23T09:38:09;11.23;;;6.03;;
58015;SDS011;43809;52.110;20.964;2022-07-23T09:40:10;7.90;;;6.93;;
58015;SDS011;43809;52.110;20.964;2022-07-23T09:42:13;7.35;;;6.55;;
58015;SDS011;43809;52.110;20.964;2022-07-23T09:44:15;7.80;;;7.00;;
58015;SDS011;43809;52.110;20.964;2022-07-23T09:46:16;10.23;;;6.93;;
58015;SDS011;43809;52.110;20.964;2022-07-23T09:48:17;8.50;;;7.03;;
58015;SDS011;43809;52.110;20.964;2022-07-23T09:50:19;6.73;;;6.23;;
58015;SDS011;43809;52.110;20.964;2022-07-23T09:54:21;11.07;;;7.28;;
58015;SDS011;43809;52.110;20.964;2022-07-23T09:56:22;6.95;;;6.35;;
58015;SDS011;43809;52.110;20.964;2022-07-23T09:58:23;7.35;;;6.50;;
58015;SDS011;43809;52.110;20.964;2022-07-23T10:00:26;6.88;;;6.28;;
58015;SDS011;43809;52.110;20.964;2022-07-23T10:02:27;6.27;;;5.77;;
58015;SDS011;43809;52.110;20.964;2022-07-23T10:04:28;7.03;;;6.45;;
58015;SDS011;43809;52.110;20.964;2022-07-23T10:06:28;10.60;;;6.53;;
58015;SDS011;43809;52.110;20.964;2022-07-23T10:08:29;6.57;;;6.00;;
58015;SDS011;43809;52.110;20.964;2022-07-23T10:10:30;6.93;;;6.33;;
58015;SDS011;43809;52.110;20.964;2022-07-23T10:12:30;6.90;;;5.97;;
58015;SDS011;43809;52.110;20.964;2022-07-23T10:14:38;6.72;;;6.15;;
58015;SDS011;43809;52.110;20.964;2022-07-23T10:16:38;6.35;;;5.85;;
58015;SDS011;43809;52.110;20.964;2022-07-23T10:18:38;6.80;;;6.07;;
58015;SDS011;43809;52.110;20.964;2022-07-23T10:20:39;5.67;;;5.23;;
58015;SDS011;43809;52.110;20.964;2022-07-23T10:22:42;8.37;;;6.20;;
58015;SDS011;43809;52.110;20.964;2022-07-23T10:26:57;7.28;;;6.15;;
58015;SDS011;43809;52.110;20.964;2022-07-23T10:31:02;13.27;;;7.13;;
58015;SDS011;43809;52.110;20.964;2022-07-23T10:37:14;6.05;;;5.55;;
58015;SDS011;43809;52.110;20.964;2022-07-23T10:41:38;6.37;;;5.70;;
58015;SDS011;43809;52.110;20.964;2022-07-23T10:43:39;6.25;;;5.18;;
58015;SDS011;43809;52.110;20.964;2022-07-23T10:45:39;6.33;;;5.80;;
58015;SDS011;43809;52.110;20.964;2022-07-23T10:47:40;5.80;;;5.30;;
58015;SDS011;43809;52.110;20.964;2022-07-23T10:49:41;6.10;;;5.60;;
58015;SDS011;43809;52.110;20.964;2022-07-23T10:52:03;5.70;;;5.23;;
58015;SDS011;43809;52.110;20.964;2022-07-23T10:54:01;5.75;;;5.25;;
58015;SDS011;43809;52.110;20.964;2022-07-23T10:56:01;5.93;;;5.43;;
58015;SDS011;43809;52.110;20.964;2022-07-23T10:58:02;6.17;;;5.60;;
58015;SDS011;43809;52.110;20.964;2022-07-23T11:02:21;6.32;;;5.60;;
58015;SDS011;43809;52.110;20.964;2022-07-23T11:04:46;6.50;;;6.00;;
58015;SDS011;43809;52.110;20.964;2022-07-23T11:08:51;6.22;;;5.72;;
58015;SDS011;43809;52.110;20.964;2022-07-23T11:11:09;6.95;;;6.30;;
58015;SDS011;43809;52.110;20.964;2022-07-23T11:15:22;6.88;;;6.15;;
58015;SDS011;43809;52.110;20.964;2022-07-23T11:17:23;6.13;;;5.60;;
58015;SDS011;43809;52.110;20.964;2022-07-23T11:19:24;5.93;;;5.32;;
58015;SDS011;43809;52.110;20.964;2022-07-23T11:25:47;5.90;;;5.40;;
58015;SDS011;43809;52.110;20.964;2022-07-23T11:27:49;6.10;;;5.60;;
58015;SDS011;43809;52.110;20.964;2022-07-23T11:31:51;7.38;;;6.78;;
58015;SDS011;43809;52.110;20.964;2022-07-23T11:34:24;7.55;;;6.72;;
58015;SDS011;43809;52.110;20.964;2022-07-23T11:36:12;5.82;;;5.32;;
58015;SDS011;43809;52.110;20.964;2022-07-23T11:38:13;7.00;;;6.40;;
58015;SDS011;43809;52.110;20.964;2022-07-23T11:40:15;6.68;;;6.00;;
58015;SDS011;43809;52.110;20.964;2022-07-23T11:42:16;7.15;;;6.40;;
58015;SDS011;43809;52.110;20.964;2022-07-23T11:44:27;6.70;;;6.10;;
58015;SDS011;43809;52.110;20.964;2022-07-23T11:46:27;7.10;;;6.55;;
58015;SDS011;43809;52.110;20.964;2022-07-23T11:48:28;8.47;;;6.73;;
58015;SDS011;43809;52.110;20.964;2022-07-23T11:50:29;7.82;;;7.13;;
58015;SDS011;43809;52.110;20.964;2022-07-23T11:52:29;9.37;;;6.40;;
58015;SDS011;43809;52.110;20.964;2022-07-23T11:54:29;7.10;;;6.27;;
58015;SDS011;43809;52.110;20.964;2022-07-23T11:56:29;5.80;;;5.40;;
58015;SDS011;43809;52.110;20.964;2022-07-23T11:58:29;7.17;;;6.50;;
58015;SDS011;43809;52.110;20.964;2022-07-23T12:00:30;5.77;;;5.27;;
58015;SDS011;43809;52.110;20.964;2022-07-23T12:02:31;6.13;;;5.43;;
58015;SDS011;43809;52.110;20.964;2022-07-23T12:04:41;6.30;;;5.80;;
58015;SDS011;43809;52.110;20.964;2022-07-23T12:06:41;5.43;;;4.95;;
58015;SDS011;43809;52.110;20.964;2022-07-23T12:08:41;5.50;;;5.00;;
58015;SDS011;43809;52.110;20.964;2022-07-23T12:10:43;6.90;;;6.20;;
58015;SDS011;43809;52.110;20.964;2022-07-23T12:12:45;5.57;;;5.18;;
58015;SDS011;43809;52.110;20.964;2022-07-23T12:14:49;6.75;;;6.15;;
58015;SDS011;43809;52.110;20.964;2022-07-23T12:17:08;7.35;;;6.65;;
58015;SDS011;43809;52.110;20.964;2022-07-23T12:19:09;6.43;;;5.93;;
58015;SDS011;43809;52.110;20.964;2022-07-23T12:21:09;6.80;;;6.13;;
58015;SDS011;43809;52.110;20.964;2022-07-23T12:23:10;6.30;;;5.70;;
58015;SDS011;43809;52.110;20.964;2022-07-23T12:25:14;5.90;;;5.40;;
58015;SDS011;43809;52.110;20.964;2022-07-23T12:27:15;6.43;;;5.90;;